Terminal Aerodrome Forecast
Issued by NWS

Home | Current Version | Previous Version | Text Only | Print | Product List | Glossary On
Versions: 1 2 3 4 5 6 7 8 9 10 11 12 13 14 15 16 17
000
FTUS45 KREV 300144 AAB
TAFRNO
TAF AMD
KRNO 300144Z 3002/3024 34020G32KT 6SM SHRA SCT018 OVC035
     FM300230 33015G25KT P6SM -SHRA SCT030 BKN050
     FM300600 34014KT P6SM VCSH SCT030 OVC040
     FM301500 02013KT P6SM OVC050
     FM301900 08013G23KT P6SM SCT050=

USA.gov is the U.S. government's official web portal to all federal, state and local government web resources and services.